Time;durP1;ratioP1;P1;durP2;ratioP2;P2;SDS_P1;SDS_P2;PMS_P1;PMS_P2;Temp;Humidity;BMP_temperature;BMP_pressure;BME280_temperature;BME280_humidity;BME280_pressure;Samples;Min_cycle;Max_cycle;Signal;HPM_P1;HPM_P2
2022/12/06 00:00:53;;;;;;;0.10;0.10;;;;;;;4.56;100.00;101999.94;4948056;28;20126;-72
2022/12/06 00:03:18;;;;;;;0.10;0.10;;;;;;;4.50;100.00;102003.69;4958522;28;20044;-72
2022/12/06 00:05:44;;;;;;;0.10;0.10;;;;;;;4.55;100.00;102001.72;4953745;28;20118;-72
2022/12/06 00:08:09;;;;;;;0.10;0.10;;;;;;;4.39;100.00;101988.06;4952417;28;20054;-72
2022/12/06 00:10:35;;;;;;;0.13;0.13;;;;;;;4.41;100.00;101985.38;4965726;28;20050;-72
2022/12/06 00:13:02;;;;;;;0.10;0.10;;;;;;;4.44;100.00;102002.09;4958038;28;20062;-72
2022/12/06 00:15:27;;;;;;;0.10;0.10;;;;;;;4.50;100.00;101987.72;4964865;28;20077;-72
2022/12/06 00:17:52;;;;;;;0.10;0.10;;;;;;;4.42;100.00;101977.31;4960122;28;20030;-72
2022/12/06 00:20:18;;;;;;;0.10;0.10;;;;;;;4.28;100.00;101966.31;4971121;28;20432;-71
2022/12/06 00:22:44;;;;;;;0.10;0.10;;;;;;;4.16;100.00;101952.47;4951307;28;20073;-72
2022/12/06 00:25:09;;;;;;;0.10;0.10;;;;;;;4.42;100.00;101987.13;4942165;28;20082;-72
2022/12/06 00:27:34;;;;;;;0.10;0.10;;;;;;;4.36;100.00;101982.88;4957125;28;20035;-72
2022/12/06 00:30:00;;;;;;;0.10;0.10;;;;;;;4.43;100.00;101999.50;4965077;28;20034;-72
2022/12/06 00:32:25;;;;;;;0.10;0.10;;;;;;;4.45;100.00;101995.84;4963048;28;20030;-72
2022/12/06 00:34:50;;;;;;;0.10;0.10;;;;;;;4.43;100.00;101994.16;4962686;28;20483;-72
2022/12/06 00:37:16;;;;;;;0.20;0.20;;;;;;;4.45;100.00;101993.19;4945093;28;20553;-72
2022/12/06 00:39:41;;;;;;;0.10;0.10;;;;;;;4.42;100.00;101981.78;4943191;28;20468;-72
2022/12/06 00:42:06;;;;;;;0.10;0.10;;;;;;;4.46;100.00;101992.25;4946760;28;20473;-72
2022/12/06 00:44:32;;;;;;;0.10;0.10;;;;;;;4.42;100.00;101980.00;4948892;28;20081;-72
2022/12/06 00:46:57;;;;;;;0.10;0.10;;;;;;;4.53;100.00;101995.56;4962056;28;20069;-72
2022/12/06 00:49:22;;;;;;;0.10;0.10;;;;;;;4.37;100.00;101975.75;4945957;28;20109;-72
2022/12/06 00:51:48;;;;;;;0.10;0.10;;;;;;;4.45;100.00;101989.66;4958712;28;20114;-72
2022/12/06 00:54:14;;;;;;;0.10;0.10;;;;;;;4.52;100.00;101998.31;4943772;28;20026;-72
2022/12/06 00:56:39;;;;;;;0.10;0.10;;;;;;;4.50;100.00;101988.59;4954828;28;20499;-72
2022/12/06 00:59:05;;;;;;;0.10;0.10;;;;;;;4.44;100.00;101985.28;4941853;28;20030;-72
2022/12/06 01:01:32;;;;;;;0.10;0.10;;;;;;;4.35;100.00;101968.69;4947173;28;20053;-72
2022/12/06 01:04:00;;;;;;;0.10;0.10;;;;;;;4.56;100.00;102003.47;4960572;28;20034;-72
2022/12/06 01:06:28;;;;;;;0.10;0.10;;;;;;;4.53;100.00;101995.56;4940157;28;20503;-71
2022/12/06 01:08:55;;;;;;;0.10;0.10;;;;;;;4.48;100.00;102003.72;4939433;28;20074;-72
2022/12/06 01:11:21;;;;;;;0.20;0.20;;;;;;;4.43;100.00;101996.84;4949608;28;20034;-71
2022/12/06 01:13:46;;;;;;;0.10;0.10;;;;;;;4.49;100.00;102001.94;4961460;28;20027;-72
2022/12/06 01:16:15;;;;;;;0.10;0.10;;;;;;;4.45;100.00;102005.63;4960372;28;20098;-72
2022/12/06 01:18:42;;;;;;;0.10;0.10;;;;;;;4.28;100.00;101980.44;4954439;28;20054;-71
2022/12/06 01:21:13;;;;;;;0.20;0.20;;;;;;;4.48;100.00;101998.41;4941856;28;20037;-72
2022/12/06 01:23:39;;;;;;;0.10;0.10;;;;;;;4.49;100.00;101993.97;4943195;28;20480;-72
2022/12/06 01:26:05;;;;;;;0.10;0.10;;;;;;;4.48;100.00;102000.22;4958795;28;20049;-72
2022/12/06 01:28:31;;;;;;;0.10;0.10;;;;;;;4.47;100.00;101998.47;4945314;28;20027;-72
2022/12/06 01:30:56;;;;;;;0.20;0.20;;;;;;;4.45;100.00;101989.66;4963193;28;20030;-72
2022/12/06 01:33:22;;;;;;;0.10;0.10;;;;;;;4.55;100.00;102001.72;4961576;28;20543;-72
2022/12/06 01:35:47;;;;;;;0.10;0.10;;;;;;;4.49;100.00;101992.16;4945835;28;20038;-72
2022/12/06 01:38:12;;;;;;;0.10;0.10;;;;;;;4.52;100.00;101982.34;4945188;28;20476;-72
2022/12/06 01:40:45;;;;;;;0.10;0.10;;;;;;;4.60;100.00;101996.25;4960556;28;20508;-72
2022/12/06 01:43:30;;;;;;;0.10;0.10;;;;;;;4.57;100.00;101989.25;4939920;28;20035;-72
2022/12/06 01:45:57;;;;;;;0.10;0.10;;;;;;;4.56;100.00;101984.84;4961328;28;20049;-72
2022/12/06 01:48:24;;;;;;;0.10;0.10;;;;;;;4.60;100.00;101991.78;4946791;28;20020;-72
2022/12/06 01:50:51;;;;;;;0.10;0.10;;;;;;;4.60;100.00;101986.47;4977051;28;20069;-72
2022/12/06 01:53:18;;;;;;;0.10;0.10;;;;;;;4.58;100.00;101983.00;4961444;28;20461;-72
2022/12/06 01:55:44;;;;;;;0.10;0.10;;;;;;;4.57;100.00;101991.91;4962192;28;20042;-72
2022/12/06 01:58:16;;;;;;;0.10;0.10;;;;;;;4.54;100.00;101980.50;4946386;28;20086;-72
2022/12/06 02:00:42;;;;;;;0.10;0.10;;;;;;;4.52;100.00;101982.34;4948638;28;20482;-72
2022/12/06 02:03:10;;;;;;;0.10;0.10;;;;;;;4.41;100.00;101972.94;4970642;28;20035;-72
2022/12/06 02:05:36;;;;;;;0.10;0.10;;;;;;;4.50;100.00;101991.25;4962767;28;20593;-72
2022/12/06 02:08:02;;;;;;;0.10;0.10;;;;;;;4.39;100.00;101966.78;4948049;28;20038;-72
2022/12/06 02:10:28;;;;;;;0.10;0.10;;;;;;;4.51;100.00;101989.44;4947184;28;20038;-72
2022/12/06 02:12:55;;;;;;;0.20;0.20;;;;;;;4.47;100.00;101982.50;4955575;28;20086;-72
2022/12/06 02:15:24;;;;;;;0.10;0.10;;;;;;;4.49;100.00;101992.16;4949303;28;20046;-72
2022/12/06 02:18:00;;;;;;;0.10;0.10;;;;;;;4.40;100.00;101971.19;4964711;28;20038;-72
2022/12/06 02:20:31;;;;;;;0.15;0.15;;;;;;;4.47;100.00;101983.38;4964843;28;20038;-71
2022/12/06 02:23:15;;;;;;;0.10;0.10;;;;;;;4.46;100.00;101986.09;4964402;28;20031;-72
2022/12/06 02:25:49;;;;;;;0.10;0.10;;;;;;;4.49;100.00;101986.00;4965650;28;20464;-72
2022/12/06 02:28:48;;;;;;;0.10;0.10;;;;;;;4.43;100.00;101988.84;4939843;28;20030;-72
2022/12/06 02:31:24;;;;;;;0.10;0.10;;;;;;;4.44;100.00;101985.28;4968343;28;20030;-72
2022/12/06 02:34:02;;;;;;;0.10;0.10;;;;;;;4.46;100.00;101986.94;4945700;28;20442;-72
2022/12/06 02:36:55;;;;;;;0.10;0.10;;;;;;;4.47;100.00;101982.50;4977758;28;20027;-72
2022/12/06 02:39:20;;;;;;;0.10;0.10;;;;;;;4.47;100.00;101983.38;4964860;28;20027;-71
2022/12/06 02:41:57;;;;;;;0.10;0.10;;;;;;;4.40;100.00;101976.50;4974534;28;20034;-72
2022/12/06 02:44:27;;;;;;;0.10;0.10;;;;;;;4.26;100.00;101939.75;4968137;28;20026;-72
2022/12/06 02:46:55;;;;;;;0.10;0.10;;;;;;;4.43;100.00;101975.56;4947174;28;20109;-72
2022/12/06 02:49:22;;;;;;;0.10;0.10;;;;;;;4.46;100.00;101965.66;4951189;28;20105;-72
2022/12/06 02:51:48;;;;;;;0.10;0.10;;;;;;;4.50;100.00;101971.78;4934441;28;20373;-72
2022/12/06 02:54:14;;;;;;;0.10;0.10;;;;;;;4.43;100.00;101955.13;4942445;28;20146;-72
2022/12/06 02:56:39;;;;;;;0.10;0.10;;;;;;;4.49;100.00;101956.75;4937121;28;20027;-72
2022/12/06 02:59:04;;;;;;;0.10;0.10;;;;;;;4.47;100.00;101953.25;4947150;28;20027;-72
2022/12/06 03:01:32;;;;;;;0.10;0.10;;;;;;;4.34;100.00;101937.72;4961632;28;20552;-72
2022/12/06 03:04:30;;;;;;;0.10;0.10;;;;;;;4.48;100.00;101957.66;4933373;28;20027;-72
2022/12/06 03:07:29;;;;;;;0.17;0.17;;;;;;;4.53;100.00;101962.81;4944957;28;20110;-72
2022/12/06 03:10:20;;;;;;;0.10;0.10;;;;;;;4.55;100.00;101964.47;4948188;28;20133;-72
2022/12/06 03:13:05;;;;;;;0.10;0.10;;;;;;;4.44;100.00;101938.25;4946647;28;20038;-72
2022/12/06 03:15:53;;;;;;;;;;;;;;;4.55;100.00;101966.28;4976081;28;20035;-71
2022/12/06 03:18:33;;;;;;;0.10;0.10;;;;;;;4.53;100.00;101963.66;4954717;28;20447;-72
2022/12/06 03:21:16;;;;;;;0.10;0.10;;;;;;;4.52;100.00;101967.25;4933895;28;20035;-72
2022/12/06 03:23:44;;;;;;;0.10;0.10;;;;;;;4.50;100.00;101966.44;4947868;28;20038;-72
2022/12/06 03:26:13;;;;;;;0.10;0.10;;;;;;;4.49;100.00;101962.91;4944285;28;20544;-72
2022/12/06 03:28:38;;;;;;;0.17;0.17;;;;;;;4.43;100.00;101959.59;4950820;28;20035;-72
2022/12/06 03:31:09;;;;;;;0.13;0.13;;;;;;;4.43;100.00;101968.44;4936563;29;20836;-72
2022/12/06 03:33:36;;;;;;;0.15;0.15;;;;;;;4.49;100.00;101976.22;4949089;28;20030;-72
2022/12/06 03:36:02;;;;;;;0.10;0.10;;;;;;;4.41;100.00;101956.13;4948197;28;20037;-71
2022/12/06 03:38:35;;;;;;;0.10;0.10;;;;;;;4.43;100.00;101965.78;4968337;28;20030;-72
2022/12/06 03:41:04;;;;;;;0.10;0.10;;;;;;;4.53;100.00;101968.13;4940644;28;20038;-72
2022/12/06 03:43:29;;;;;;;0.20;0.20;;;;;;;4.54;100.00;101972.53;4963772;28;20047;-72
2022/12/06 03:46:03;;;;;;;0.10;0.10;;;;;;;4.48;100.00;101966.50;4964557;28;20066;-72
2022/12/06 03:48:35;;;;;;;0.20;0.20;;;;;;;4.50;100.00;101974.44;4945044;28;20027;-72
2022/12/06 03:51:06;;;;;;;0.20;0.20;;;;;;;4.47;100.00;101956.78;4956208;28;20133;-72
2022/12/06 03:53:32;;;;;;;0.10;0.10;;;;;;;4.56;100.00;101965.38;4957534;28;20035;-72
2022/12/06 03:55:58;;;;;;;0.13;0.13;;;;;;;4.57;100.00;101961.78;4949405;28;20033;-72
2022/12/06 03:58:24;;;;;;;0.10;0.10;;;;;;;4.42;100.00;101955.19;4962619;28;20039;-72
2022/12/06 04:00:49;;;;;;;0.10;0.10;;;;;;;4.34;100.00;101939.50;4945197;28;20042;-72
2022/12/06 04:03:14;;;;;;;0.10;0.10;;;;;;;4.49;100.00;101967.38;4958585;28;20481;-72
2022/12/06 04:05:40;;;;;;;0.10;0.10;;;;;;;4.40;100.00;101963.22;4955868;28;20045;-72
2022/12/06 04:08:05;;;;;;;0.10;0.10;;;;;;;4.35;100.00;101959.88;4947931;28;20618;-72
2022/12/06 04:10:30;;;;;;;0.20;0.20;;;;;;;4.40;100.00;101951.72;4944938;28;20504;-72
2022/12/06 04:13:04;;;;;;;0.13;0.13;;;;;;;4.33;100.00;101951.06;4961212;28;20037;-71
2022/12/06 04:15:33;;;;;;;0.10;0.10;;;;;;;4.28;100.00;101953.00;4944195;28;20085;-72
2022/12/06 04:18:12;;;;;;;0.10;0.10;;;;;;;4.49;100.00;101962.91;4943122;28;20067;-71
2022/12/06 04:23:37;;;;;;;0.10;0.10;;;;;;;4.29;100.00;101939.66;4963265;28;20057;-72
2022/12/06 04:26:04;;;;;;;0.10;0.10;;;;;;;4.43;100.00;101965.78;4949140;28;20053;-72
2022/12/06 04:39:26;;;;;;;0.20;0.20;;;;;;;4.21;100.00;101944.38;4959683;28;20117;-71
2022/12/06 04:44:35;;;;;;;0.10;0.10;;;;;;;4.39;100.00;101965.94;4950399;28;20117;-72
2022/12/06 04:47:01;;;;;;;0.10;0.10;;;;;;;4.48;100.00;101965.63;4965089;28;20528;-71
2022/12/06 04:49:26;;;;;;;0.20;0.20;;;;;;;4.54;100.00;101970.72;4959700;28;20583;-72
2022/12/06 04:51:52;;;;;;;0.15;0.15;;;;;;;4.47;100.00;101958.56;4960566;28;20077;-72
2022/12/06 04:54:18;;;;;;;0.10;0.10;;;;;;;4.46;100.00;101957.69;4943319;28;20030;-71
2022/12/06 04:56:43;;;;;;;0.20;0.20;;;;;;;4.40;100.00;101951.72;4966062;28;20037;-72
2022/12/06 04:59:09;;;;;;;0.20;0.20;;;;;;;4.43;100.00;101948.97;4962215;28;20031;-72
2022/12/06 05:01:34;;;;;;;0.20;0.20;;;;;;;4.37;100.00;101955.34;4962778;28;20037;-71
2022/12/06 05:03:59;;;;;;;0.10;0.10;;;;;;;4.43;100.00;101963.13;4945388;28;20508;-72
2022/12/06 05:06:24;;;;;;;0.17;0.17;;;;;;;4.45;100.00;101953.28;4958329;28;20041;-72
2022/12/06 05:08:50;;;;;;;0.10;0.10;;;;;;;4.42;100.00;101945.41;4964805;28;20038;-72
2022/12/06 05:11:15;;;;;;;0.20;0.20;;;;;;;4.54;100.00;101956.56;4963348;28;20042;-72
2022/12/06 05:13:40;;;;;;;0.10;0.10;;;;;;;4.55;100.00;101955.66;4958804;28;20090;-72
2022/12/06 05:16:06;;;;;;;0.20;0.20;;;;;;;4.53;100.00;101953.03;4960171;28;20426;-72
2022/12/06 05:18:33;;;;;;;0.20;0.20;;;;;;;4.50;100.00;101948.69;4946305;28;20073;-72
2022/12/06 05:21:09;;;;;;;0.20;0.20;;;;;;;4.50;100.00;101951.34;4943085;28;20034;-72
2022/12/06 05:23:35;;;;;;;0.20;0.20;;;;;;;4.27;100.00;101924.69;4958144;28;20030;-71
2022/12/06 05:26:03;;;;;;;0.10;0.10;;;;;;;4.42;100.00;101952.53;4944334;28;20031;-72
2022/12/06 05:28:29;;;;;;;0.10;0.10;;;;;;;4.48;100.00;101958.50;4934541;28;20117;-72
2022/12/06 05:30:54;;;;;;;0.13;0.13;;;;;;;4.35;100.00;101930.63;4960220;28;20030;-72
2022/12/06 05:33:20;;;;;;;0.10;0.10;;;;;;;4.54;100.00;101960.09;4956978;28;20205;-72
2022/12/06 05:35:45;;;;;;;0.20;0.20;;;;;;;4.39;100.00;101942.00;4956747;28;20031;-72
2022/12/06 05:38:11;;;;;;;0.13;0.13;;;;;;;4.55;100.00;101958.31;4960832;28;20046;-72
2022/12/06 05:40:39;;;;;;;0.20;0.20;;;;;;;4.48;100.00;101950.53;4937852;28;20103;-72
2022/12/06 05:43:04;;;;;;;0.10;0.10;;;;;;;4.48;100.00;101955.84;4957278;28;20027;-71
2022/12/06 05:45:29;;;;;;;0.10;0.10;;;;;;;4.37;100.00;101941.19;4958056;28;20027;-72
2022/12/06 05:47:54;;;;;;;0.10;0.10;;;;;;;4.47;100.00;101951.44;4950434;28;20512;-71
2022/12/06 05:50:20;;;;;;;0.15;0.15;;;;;;;4.44;100.00;101948.91;4960370;28;20026;-72
2022/12/06 05:52:45;;;;;;;0.10;0.10;;;;;;;4.45;100.00;101955.09;4953139;28;20041;-72
2022/12/06 05:55:11;;;;;;;0.10;0.10;;;;;;;4.40;100.00;101955.22;4962227;28;20034;-72
2022/12/06 05:57:36;;;;;;;0.10;0.10;;;;;;;4.42;100.00;101958.72;4957084;28;20062;-71
2022/12/06 06:00:03;;;;;;;0.20;0.20;;;;;;;4.43;100.00;101957.78;4967236;28;20082;-72
2022/12/06 06:02:28;;;;;;;0.10;0.10;;;;;;;4.23;100.00;101923.94;4950326;28;20029;-72
2022/12/06 06:04:54;;;;;;;0.10;0.10;;;;;;;4.27;100.00;101959.25;4947748;28;20034;-71
2022/12/06 06:07:19;;;;;;;0.10;0.10;;;;;;;4.33;100.00;101965.22;4960980;28;20035;-71
2022/12/06 06:09:44;;;;;;;0.10;0.10;;;;;;;4.18;100.00;101963.94;4971295;28;20035;-72
2022/12/06 06:12:10;;;;;;;0.20;0.20;;;;;;;4.09;100.00;101961.59;4948290;28;20038;-72
2022/12/06 06:14:35;;;;;;;0.20;0.20;;;;;;;4.00;100.00;101937.97;4945886;28;20560;-71
2022/12/06 06:17:00;;;;;;;0.10;0.10;;;;;;;4.14;100.00;101967.59;4969363;28;20635;-72
2022/12/06 06:19:26;;;;;;;0.17;0.17;;;;;;;4.02;100.00;101970.69;4978344;28;20042;-72
2022/12/06 06:21:51;;;;;;;0.20;0.20;;;;;;;4.05;100.00;101973.25;4965894;28;20042;-71
2022/12/06 06:24:16;;;;;;;0.10;0.10;;;;;;;3.88;100.00;101961.34;4960972;28;20074;-71
2022/12/06 06:26:42;;;;;;;0.10;0.10;;;;;;;3.86;100.00;101943.72;4972646;28;20030;-71
2022/12/06 06:29:07;;;;;;;0.20;0.20;;;;;;;3.77;100.00;101946.66;4971138;28;20773;-71
2022/12/06 06:31:33;;;;;;;0.20;0.20;;;;;;;3.88;100.00;101971.13;4963791;28;20026;-71
2022/12/06 06:33:58;;;;;;;0.20;0.20;;;;;;;3.85;100.00;101968.56;4973531;28;20312;-72
2022/12/06 06:36:24;;;;;;;0.17;0.17;;;;;;;3.69;100.00;101953.09;4945480;28;20101;-72
2022/12/06 06:38:49;;;;;;;0.10;0.10;;;;;;;3.86;100.00;101970.28;4963408;28;20038;-71
2022/12/06 06:41:14;;;;;;;0.10;0.10;;;;;;;3.84;100.00;101969.47;4955247;28;20333;-71
2022/12/06 06:43:40;;;;;;;0.20;0.20;;;;;;;3.93;100.00;101973.63;4951375;28;20523;-71
2022/12/06 06:46:06;;;;;;;0.13;0.13;;;;;;;3.87;100.00;101972.03;4961625;28;20120;-72
2022/12/06 06:48:34;;;;;;;0.10;0.10;;;;;;;3.99;100.00;101979.59;4953604;28;20069;-71
2022/12/06 06:51:04;;;;;;;0.10;0.10;;;;;;;3.93;100.00;101969.19;4943514;28;20046;-71
2022/12/06 06:53:30;;;;;;;0.20;0.20;;;;;;;3.87;100.00;101958.75;4970124;28;20511;-72
2022/12/06 06:55:55;;;;;;;0.20;0.20;;;;;;;3.87;100.00;101964.91;4966010;28;20039;-71
2022/12/06 06:58:21;;;;;;;0.10;0.10;;;;;;;3.85;100.00;101969.41;4972634;28;20038;-72
2022/12/06 07:00:54;;;;;;;0.20;0.20;;;;;;;3.82;100.00;101960.69;4965984;28;20026;-71
2022/12/06 07:03:20;;;;;;;0.10;0.10;;;;;;;3.81;100.00;101966.91;4954098;28;20034;-71
2022/12/06 07:05:54;;;;;;;0.10;0.10;;;;;;;3.83;100.00;101962.41;4950566;28;20041;-71
2022/12/06 07:08:19;;;;;;;0.13;0.13;;;;;;;3.66;100.00;101937.25;4967828;28;20031;-72
2022/12/06 07:10:47;;;;;;;0.20;0.20;;;;;;;3.54;100.00;101930.53;4962867;28;20049;-72
2022/12/06 07:13:16;;;;;;;0.10;0.10;;;;;;;3.60;100.00;101940.97;4950652;28;20483;-72
2022/12/06 07:15:42;;;;;;;0.10;0.10;;;;;;;3.73;100.00;101960.03;4932059;28;20041;-72
2022/12/06 07:18:07;;;;;;;0.10;0.10;;;;;;;3.73;100.00;101969.81;4928361;29;20062;-71
2022/12/06 07:20:32;;;;;;;0.13;0.13;;;;;;;3.67;100.00;101954.94;4962221;28;20396;-71
2022/12/06 07:22:58;;;;;;;0.20;0.20;;;;;;;3.62;100.00;101937.38;4950145;28;20035;-72
2022/12/06 07:25:23;;;;;;;0.10;0.10;;;;;;;3.72;100.00;101949.47;4946035;28;20058;-72
2022/12/06 07:27:48;;;;;;;0.10;0.10;;;;;;;3.84;100.00;101959.69;4941348;28;20472;-71
2022/12/06 07:30:14;;;;;;;0.20;0.20;;;;;;;3.88;100.00;101966.66;4938094;28;20453;-71
2022/12/06 07:32:39;;;;;;;0.20;0.20;;;;;;;3.88;100.00;101969.31;4939147;28;20031;-72
2022/12/06 07:35:05;;;;;;;0.20;0.20;;;;;;;3.90;100.00;101961.31;4940107;28;20035;-72
2022/12/06 07:37:31;;;;;;;0.20;0.20;;;;;;;3.79;100.00;101940.41;4956166;28;20034;-72
2022/12/06 07:39:56;;;;;;;0.13;0.13;;;;;;;3.86;100.00;101943.72;4958586;28;20031;-72
2022/12/06 07:45:07;;;;;;;0.20;0.20;;;;;;;3.83;100.00;101947.38;4959380;28;20385;-72
2022/12/06 07:47:37;;;;;;;0.10;0.10;;;;;;;4.00;100.00;101978.69;4960054;28;20045;-72
2022/12/06 07:50:04;;;;;;;0.10;0.10;;;;;;;3.93;100.00;101961.22;4950286;28;20118;-72
2022/12/06 07:52:31;;;;;;;0.15;0.15;;;;;;;3.95;100.00;101962.03;4952452;28;20030;-71
2022/12/06 07:54:57;;;;;;;0.10;0.10;;;;;;;4.07;100.00;101975.84;4963855;28;20037;-72
2022/12/06 07:57:22;;;;;;;0.10;0.10;;;;;;;4.00;100.00;101961.88;4961203;28;20364;-72
2022/12/06 07:59:47;;;;;;;0.20;0.20;;;;;;;3.97;100.00;101954.00;4951984;28;20038;-72
2022/12/06 08:02:18;;;;;;;0.10;0.10;;;;;;;4.12;100.00;101982.72;4956480;28;20039;-72
2022/12/06 08:04:44;;;;;;;0.10;0.10;;;;;;;4.17;100.00;101983.47;4972315;28;20030;-72
2022/12/06 08:07:09;;;;;;;0.20;0.20;;;;;;;4.16;100.00;101987.03;4962758;28;20035;-72
2022/12/06 08:09:35;;;;;;;0.10;0.10;;;;;;;3.99;100.00;101954.84;4960282;28;20026;-72
2022/12/06 08:12:00;;;;;;;0.10;0.10;;;;;;;4.12;100.00;101969.44;4946591;28;20062;-72
2022/12/06 08:14:25;;;;;;;0.15;0.15;;;;;;;4.23;100.00;101981.53;4960159;28;20110;-72
2022/12/06 08:16:51;;;;;;;0.20;0.20;;;;;;;4.13;100.00;101983.63;4974129;28;20053;-72
2022/12/06 08:19:16;;;;;;;0.20;0.20;;;;;;;4.17;100.00;101977.28;4981969;28;20033;-72
2022/12/06 08:21:41;;;;;;;0.20;0.20;;;;;;;4.14;100.00;101977.38;4968330;28;20317;-71
2022/12/06 08:24:07;;;;;;;0.13;0.13;;;;;;;4.04;100.00;101951.09;4948368;28;20882;-72
2022/12/06 08:26:32;;;;;;;0.20;0.20;;;;;;;4.22;100.00;101978.00;4955338;28;20037;-71
2022/12/06 08:29:02;;;;;;;0.10;0.10;;;;;;;4.18;100.00;101963.09;4935905;28;20023;-72
2022/12/06 08:31:29;;;;;;;0.17;0.17;;;;;;;4.25;100.00;101983.19;4949129;28;20376;-72
2022/12/06 08:33:55;;;;;;;0.20;0.20;;;;;;;4.24;100.00;101980.59;4959483;28;20034;-72
2022/12/06 08:36:21;;;;;;;0.10;0.10;;;;;;;4.27;100.00;101981.38;4957505;28;20057;-71
2022/12/06 08:38:48;;;;;;;0.10;0.10;;;;;;;4.37;100.00;101983.72;4972210;28;20109;-71
2022/12/06 08:43:59;;;;;;;0.10;0.10;;;;;;;4.45;100.00;101987.88;4954614;28;20038;-72
2022/12/06 08:46:25;;;;;;;0.10;0.10;;;;;;;4.40;100.00;101986.28;4952242;28;20027;-72
2022/12/06 08:48:51;;;;;;;0.10;0.10;;;;;;;4.48;100.00;101990.44;4945319;28;20033;-72
2022/12/06 08:51:16;;;;;;;0.15;0.15;;;;;;;4.53;100.00;101994.72;4968869;28;20030;-72
2022/12/06 08:53:41;;;;;;;0.10;0.10;;;;;;;4.56;100.00;101995.47;4946549;28;20063;-71
2022/12/06 08:56:07;;;;;;;0.10;0.10;;;;;;;4.53;100.00;101984.94;4963061;28;20127;-72
2022/12/06 08:58:32;;;;;;;0.20;0.20;;;;;;;4.54;100.00;101993.81;4973800;28;20038;-72
2022/12/06 09:00:57;;;;;;;0.10;0.10;;;;;;;4.49;100.00;101996.63;4978804;28;20031;-72
2022/12/06 09:03:23;;;;;;;0.20;0.20;;;;;;;4.53;100.00;102005.38;4953987;28;20030;-72
2022/12/06 09:05:48;;;;;;;0.10;0.10;;;;;;;4.51;100.00;102005.41;4963380;28;20126;-72
2022/12/06 09:08:13;;;;;;;0.20;0.20;;;;;;;4.39;100.00;101977.44;4968998;28;20046;-72
2022/12/06 09:10:39;;;;;;;0.10;0.10;;;;;;;4.63;100.00;102007.66;4963215;28;20039;-72
2022/12/06 09:13:04;;;;;;;0.10;0.10;;;;;;;4.71;100.00;102004.72;4965066;28;20027;-72
2022/12/06 09:15:29;;;;;;;0.10;0.10;;;;;;;4.64;100.00;102000.53;4979937;28;20480;-72
2022/12/06 09:17:55;;;;;;;0.10;0.10;;;;;;;4.79;100.00;102008.00;4950873;28;20437;-72
2022/12/06 09:20:20;;;;;;;0.20;0.20;;;;;;;4.66;100.00;101985.38;4962084;28;20096;-72
2022/12/06 09:22:45;;;;;;;0.15;0.15;;;;;;;4.46;100.00;101994.94;4936774;28;20544;-72
2022/12/06 09:25:10;;;;;;;0.10;0.10;;;;;;;4.37;100.00;102011.19;4965446;28;20034;-72
2022/12/06 09:27:36;;;;;;;0.10;0.10;;;;;;;4.18;100.00;101971.91;4950368;28;20812;-72
2022/12/06 09:30:01;;;;;;;0.10;0.10;;;;;;;4.23;100.00;102005.47;4951300;28;20022;-71
2022/12/06 09:32:27;;;;;;;0.20;0.20;;;;;;;4.95;100.00;102004.78;4951834;28;20046;-72
2022/12/06 09:34:52;;;;;;;0.20;0.20;;;;;;;5.79;100.00;102002.59;4968200;28;20332;-72
2022/12/06 09:37:18;;;;;;;0.10;0.10;;;;;;;6.54;100.00;101991.63;4956988;28;20364;-71
2022/12/06 09:39:48;;;;;;;0.20;0.20;;;;;;;7.15;100.00;101996.09;4969277;28;20027;-72
2022/12/06 09:42:51;;;;;;;0.20;0.20;;;;;;;7.80;100.00;102008.28;4944880;28;20251;-72
2022/12/06 09:45:26;;;;;;;0.10;0.10;;;;;;;8.05;100.00;102004.41;4945384;28;20089;-73
2022/12/06 09:48:15;;;;;;;0.10;0.10;;;;;;;8.29;100.00;102007.72;4967878;28;20503;-73
2022/12/06 09:51:09;;;;;;;0.10;0.10;;;;;;;8.00;100.00;101983.25;4958114;28;20050;-72
2022/12/06 09:53:45;;;;;;;0.10;0.10;;;;;;;8.19;100.00;101993.94;4965865;28;20134;-72
2022/12/06 09:56:32;;;;;;;0.10;0.10;;;;;;;9.04;100.00;102006.66;4963295;28;20086;-73
2022/12/06 09:59:12;;;;;;;0.10;0.10;;;;;;;9.63;100.00;102004.38;4928927;28;20039;-73
2022/12/06 10:01:44;;;;;;;0.10;0.10;;;;;;;9.52;97.81;101975.47;4965723;28;20041;-72
2022/12/06 10:04:30;;;;;;;0.20;0.20;;;;;;;10.28;95.91;101990.00;4965970;28;20037;-74
2022/12/06 10:07:10;;;;;;;0.10;0.10;;;;;;;10.23;92.25;101969.72;4942887;28;20158;-73
2022/12/06 10:09:58;;;;;;;0.10;0.10;;;;;;;10.97;91.18;101996.72;4960553;28;20070;-74
2022/12/06 10:12:46;;;;;;;0.10;0.10;;;;;;;11.06;86.56;101974.69;4963256;28;20394;-74
2022/12/06 10:15:18;;;;;;;0.10;0.10;;;;;;;11.06;86.46;101993.47;4950916;28;20110;-74
2022/12/06 10:17:48;;;;;;;0.10;0.10;;;;;;;11.05;89.14;101972.94;4949995;28;20030;-74
2022/12/06 10:20:19;;;;;;;0.00;0.00;;;;;;;10.99;91.17;101967.94;4965886;28;20033;-74
2022/12/06 10:23:09;;;;;;;0.10;0.10;;;;;;;10.95;86.18;101972.66;4928534;29;20091;-74
2022/12/06 10:25:41;;;;;;;0.10;0.10;;;;;;;11.27;85.37;101977.81;4978773;28;20467;-73
2022/12/06 10:28:16;;;;;;;0.10;0.10;;;;;;;11.31;82.34;101973.13;4932631;28;20407;-73
2022/12/06 10:30:52;;;;;;;0.10;0.10;;;;;;;11.09;83.76;101977.19;4963591;28;20506;-74
2022/12/06 10:34:00;;;;;;;0.10;0.10;;;;;;;11.62;86.11;101984.66;4941852;28;20126;-75
2022/12/06 10:36:41;;;;;;;0.10;0.10;;;;;;;12.05;79.09;101983.72;4951915;28;20292;-74
2022/12/06 10:39:15;;;;;;;0.10;0.10;;;;;;;12.46;74.64;101955.81;4954496;28;20027;-74
2022/12/06 10:41:42;;;;;;;;;;;;;;;11.53;74.95;101986.94;4956968;28;20166;-74
2022/12/06 10:44:24;;;;;;;0.20;0.20;;;;;;;12.09;72.80;101980.72;4975174;28;19913;-75
2022/12/06 10:47:04;;;;;;;0.10;0.10;;;;;;;11.59;73.53;101982.16;4951203;28;20035;-74
2022/12/06 10:49:35;;;;;;;0.10;0.10;;;;;;;12.97;74.64;101978.41;4955139;28;20026;-74
2022/12/06 10:52:18;;;;;;;0.10;0.10;;;;;;;13.16;69.65;101967.19;4968684;28;20036;-74
2022/12/06 10:55:13;;;;;;;0.10;0.10;;;;;;;13.13;65.08;101967.41;4967881;28;20031;-75
2022/12/06 10:57:51;;;;;;;;;;;;;;;13.09;66.18;101965.91;4944719;28;20423;-74
2022/12/06 11:00:24;;;;;;;0.10;0.10;;;;;;;13.38;63.19;101950.31;4942174;28;20016;-74
2022/12/06 11:03:10;;;;;;;0.10;0.10;;;;;;;13.88;61.75;101960.28;4927842;28;20070;-74
2022/12/06 11:05:38;;;;;;;0.10;0.10;;;;;;;14.13;61.67;101959.28;4947405;28;20511;-74
2022/12/06 11:08:14;;;;;;;0.10;0.10;;;;;;;14.24;60.92;101944.97;4968047;28;20463;-74
2022/12/06 11:10:42;;;;;;;0.10;0.10;;;;;;;14.89;58.20;101950.84;4936488;29;20051;-74
2022/12/06 11:13:25;;;;;;;0.08;0.08;;;;;;;14.51;56.13;101936.63;4963287;28;20066;-74
2022/12/06 11:16:45;;;;;;;0.10;0.10;;;;;;;14.05;56.94;101970.69;4931426;28;20459;-74
2022/12/06 11:20:06;;;;;;;0.10;0.10;;;;;;;14.19;54.88;101968.75;4910857;29;20036;-75
2022/12/06 11:22:53;;;;;;;0.10;0.10;;;;;;;14.95;53.15;101938.69;4945353;28;20082;-74
2022/12/06 11:25:34;;;;;;;0.10;0.10;;;;;;;14.95;53.81;101946.78;4964656;28;20696;-75
2022/12/06 11:28:20;;;;;;;0.10;0.10;;;;;;;14.31;55.40;101938.13;4932527;28;20536;-75
2022/12/06 11:30:48;;;;;;;0.00;0.00;;;;;;;14.81;54.29;101942.47;4955743;28;20034;-74
2022/12/06 11:33:14;;;;;;;0.10;0.10;;;;;;;15.07;51.49;101926.03;4935763;28;20034;-74
2022/12/06 11:35:40;;;;;;;0.10;0.10;;;;;;;15.12;52.40;101927.38;4939144;28;20433;-74
2022/12/06 11:38:06;;;;;;;0.10;0.10;;;;;;;14.91;52.22;101927.25;4956892;28;20058;-74
2022/12/06 11:40:35;;;;;;;0.10;0.10;;;;;;;14.64;51.71;101941.03;4951114;28;20126;-74
2022/12/06 11:43:04;;;;;;;0.10;0.10;;;;;;;15.07;51.90;101921.50;4950817;28;20068;-74
2022/12/06 11:45:36;;;;;;;0.10;0.10;;;;;;;14.42;52.01;101937.31;4937927;28;20069;-74
2022/12/06 11:48:14;;;;;;;0.10;0.10;;;;;;;15.09;50.66;101915.94;4941846;28;20499;-74
2022/12/06 11:50:40;;;;;;;0.10;0.10;;;;;;;15.14;49.03;101927.25;4936875;28;20031;-75
2022/12/06 11:53:15;;;;;;;0.10;0.10;;;;;;;15.69;50.19;101915.63;4955699;28;20039;-74
2022/12/06 11:55:44;;;;;;;0.10;0.10;;;;;;;15.49;47.48;101923.56;4980763;28;20031;-75
2022/12/06 11:58:17;;;;;;;0.10;0.10;;;;;;;15.05;48.92;101914.47;4937041;28;20056;-74
2022/12/06 12:01:01;;;;;;;0.10;0.10;;;;;;;13.69;52.47;101931.09;4946193;28;20026;-74